createdAt,value
2023-05-25T15:38:16.166Z,981.89
2023-05-25T15:39:16.053Z,981.89
2023-05-25T15:40:15.985Z,981.89
2023-05-25T15:41:15.911Z,981.92
2023-05-25T15:42:15.849Z,981.93
2023-05-25T15:43:15.783Z,981.94
2023-05-25T15:44:15.707Z,981.95
2023-05-25T15:45:15.639Z,981.93
2023-05-25T15:46:15.617Z,981.92
2023-05-25T15:47:15.500Z,981.93
2023-05-25T15:48:15.431Z,981.96
2023-05-25T15:49:15.358Z,981.92
2023-05-25T15:50:15.295Z,981.94
2023-05-25T15:51:15.213Z,981.91
2023-05-25T15:52:15.148Z,981.92
2023-05-25T15:53:15.092Z,981.92
2023-05-25T15:54:15.214Z,981.95
2023-05-25T15:55:14.941Z,981.94
2023-05-25T15:56:14.881Z,981.88
2023-05-25T15:57:14.793Z,981.91
2023-05-25T15:58:14.733Z,981.90
2023-05-25T15:59:14.672Z,981.92
2023-05-25T16:00:14.585Z,981.92
2023-05-25T16:01:14.532Z,981.92
2023-05-25T16:02:14.496Z,981.91
2023-05-25T16:03:14.378Z,981.89
2023-05-25T16:04:14.414Z,981.90
2023-05-25T16:05:14.243Z,981.86
2023-05-25T16:06:14.171Z,981.92
2023-05-25T16:07:14.110Z,981.93
2023-05-25T16:08:14.089Z,981.85
2023-05-25T16:09:13.957Z,981.84
2023-05-25T16:10:13.891Z,981.81
2023-05-25T16:11:13.841Z,981.80
2023-05-25T16:12:13.746Z,981.85
2023-05-25T16:13:13.672Z,981.83
2023-05-25T16:14:13.627Z,981.79
2023-05-25T16:15:13.534Z,981.80
2023-05-25T16:16:13.486Z,981.78
2023-05-25T16:17:14.394Z,981.84
2023-05-25T16:18:13.336Z,981.85
2023-05-25T16:19:14.202Z,981.83
2023-05-25T16:20:13.300Z,981.89
2023-05-25T16:21:13.123Z,981.85
2023-05-25T16:22:13.046Z,981.85
2023-05-25T16:23:12.975Z,981.85
2023-05-25T16:24:12.921Z,981.87
2023-05-25T16:25:12.832Z,981.86
2023-05-25T16:26:12.767Z,981.85
2023-05-25T16:27:12.728Z,981.85
2023-05-25T16:28:12.624Z,981.87
2023-05-25T16:29:12.556Z,981.83
2023-05-25T16:30:13.347Z,981.88
2023-05-25T16:31:12.412Z,981.83
2023-05-25T16:32:12.426Z,981.79
2023-05-25T16:33:12.351Z,981.79
2023-05-25T16:34:12.197Z,981.82
2023-05-25T16:35:12.130Z,981.77
2023-05-25T16:36:12.060Z,981.79
2023-05-25T16:37:11.995Z,981.82
2023-05-25T16:38:11.920Z,981.79
2023-05-25T16:39:11.850Z,981.82
2023-05-25T16:40:11.782Z,981.79
2023-05-25T16:41:11.703Z,981.76
2023-05-25T16:42:11.640Z,981.80
2023-05-25T16:43:11.564Z,981.80
2023-05-25T16:44:11.536Z,981.76
2023-05-25T16:45:11.425Z,981.75
2023-05-25T16:46:11.377Z,981.73
2023-05-25T16:47:11.282Z,981.73
2023-05-25T16:48:11.260Z,981.73
2023-05-25T16:49:11.135Z,981.73
2023-05-25T16:50:11.073Z,981.73
2023-05-25T16:51:10.998Z,981.71
2023-05-25T16:52:10.924Z,981.73
2023-05-25T16:53:10.857Z,981.72
2023-05-25T16:54:10.789Z,981.73
2023-05-25T16:55:10.710Z,981.74
2023-05-25T16:56:10.645Z,981.72
2023-05-25T16:57:10.569Z,981.71
2023-05-25T16:58:10.505Z,981.70
2023-05-25T16:59:10.429Z,981.69
2023-05-25T17:00:10.362Z,981.71
2023-05-25T17:01:10.310Z,981.69
2023-05-25T17:02:10.238Z,981.71
2023-05-25T17:03:10.239Z,981.71
2023-05-25T17:04:10.131Z,981.77
2023-05-25T17:05:10.026Z,981.71
2023-05-25T17:06:09.939Z,981.70
2023-05-25T17:07:09.866Z,981.77
2023-05-25T17:08:09.795Z,981.75
2023-05-25T17:09:09.726Z,981.72
2023-05-25T17:10:09.671Z,981.75
2023-05-25T17:11:09.594Z,981.73
2023-05-25T17:12:09.507Z,981.75
2023-05-25T17:13:09.435Z,981.71
2023-05-25T17:14:09.379Z,981.74
2023-05-25T17:15:09.290Z,981.74
2023-05-25T17:16:09.251Z,981.70
2023-05-25T17:17:09.159Z,981.73
2023-05-25T17:18:09.111Z,981.74
2023-05-25T17:19:09.012Z,981.69
2023-05-25T17:20:09.009Z,981.71
2023-05-25T17:21:08.870Z,981.74
2023-05-25T17:22:08.802Z,981.73
2023-05-25T17:23:08.727Z,981.70
2023-05-25T17:24:08.659Z,981.69
2023-05-25T17:25:08.580Z,981.71
2023-05-25T17:26:08.512Z,981.72
2023-05-25T17:27:08.446Z,981.72
2023-05-25T17:28:08.373Z,981.71
2023-05-25T17:29:08.300Z,981.70
2023-05-25T17:30:08.227Z,981.74
2023-05-25T17:31:09.224Z,981.72
2023-05-25T17:32:08.105Z,981.74
2023-05-25T17:33:08.050Z,981.77
2023-05-25T17:34:07.939Z,981.76
2023-05-25T17:35:07.871Z,981.78
2023-05-25T17:36:07.800Z,981.79
2023-05-25T17:37:07.732Z,981.83
2023-05-25T17:38:07.663Z,981.84
2023-05-25T17:39:07.589Z,981.85
2023-05-25T17:40:07.514Z,981.82
2023-05-25T17:41:07.684Z,981.82
2023-05-25T17:42:07.388Z,981.84
2023-05-25T17:43:07.297Z,981.82
2023-05-25T17:44:07.231Z,981.82
2023-05-25T17:45:07.158Z,981.83
2023-05-25T17:46:07.217Z,981.79
2023-05-25T17:47:08.399Z,981.82
2023-05-25T17:48:07.019Z,981.82
2023-05-25T17:49:06.872Z,981.85
2023-05-25T17:50:06.799Z,981.90
2023-05-25T17:51:07.083Z,981.90
2023-05-25T17:52:06.659Z,981.89
2023-05-25T17:53:06.581Z,981.90
2023-05-25T17:54:06.521Z,981.93
2023-05-25T17:55:06.440Z,981.93
2023-05-25T17:56:06.368Z,981.90
2023-05-25T17:57:06.661Z,981.95
2023-05-25T17:58:06.225Z,981.94
2023-05-25T17:59:06.148Z,981.94
2023-05-25T18:00:06.078Z,981.97
2023-05-25T18:01:06.059Z,981.94
2023-05-25T18:02:06.248Z,981.95
2023-05-25T18:03:06.046Z,981.94
2023-05-25T18:04:06.022Z,981.95
2023-05-25T18:05:05.771Z,981.91
2023-05-25T18:06:05.642Z,981.93
2023-05-25T18:07:05.578Z,981.96
2023-05-25T18:08:05.535Z,981.98
2023-05-25T18:09:05.436Z,981.93
2023-05-25T18:10:05.402Z,981.96
2023-05-25T18:11:05.562Z,981.95
2023-05-25T18:12:05.211Z,981.98
2023-05-25T18:13:05.133Z,981.97
2023-05-25T18:14:05.075Z,982.00
2023-05-25T18:15:04.995Z,981.98
2023-05-25T18:16:04.925Z,981.97
2023-05-25T18:17:05.109Z,981.99
2023-05-25T18:18:04.837Z,982.02
2023-05-25T18:19:04.702Z,982.01
2023-05-25T18:20:04.681Z,982.02
2023-05-25T18:21:04.663Z,982.04
2023-05-25T18:22:04.615Z,982.03
2023-05-25T18:23:04.420Z,982.06
2023-05-25T18:24:04.338Z,982.05
2023-05-25T18:25:04.272Z,982.11
2023-05-25T18:26:04.197Z,982.06
2023-05-25T18:27:04.180Z,982.08
2023-05-25T18:28:04.046Z,982.08
2023-05-25T18:29:03.999Z,982.10
2023-05-25T18:30:03.921Z,982.15
2023-05-25T18:31:03.920Z,982.12
2023-05-25T18:32:03.769Z,982.18
2023-05-25T18:33:03.716Z,982.19
2023-05-25T18:34:03.620Z,982.15
2023-05-25T18:35:03.534Z,982.18
2023-05-25T18:36:03.467Z,982.15
2023-05-25T18:37:03.661Z,982.15
2023-05-25T18:38:03.464Z,982.15
2023-05-25T18:39:03.251Z,982.17
2023-05-25T18:40:03.205Z,982.12
2023-05-25T18:41:03.105Z,982.19
2023-05-25T18:42:03.063Z,982.22
2023-05-25T18:43:03.015Z,982.22
2023-05-25T18:44:02.889Z,982.19
2023-05-25T18:45:02.802Z,982.22
2023-05-25T18:46:02.785Z,982.23
2023-05-25T18:47:02.655Z,982.24
2023-05-25T18:48:02.625Z,982.27
2023-05-25T18:49:02.514Z,982.24
2023-05-25T18:50:02.440Z,982.29
2023-05-25T18:51:02.363Z,982.31
2023-05-25T18:52:02.299Z,982.30
2023-05-25T18:53:02.220Z,982.32
2023-05-25T18:54:02.147Z,982.30
2023-05-25T18:55:02.078Z,982.38
2023-05-25T18:56:02.027Z,982.38
2023-05-25T18:57:01.936Z,982.39
2023-05-25T18:58:01.846Z,982.41
2023-05-25T18:59:01.774Z,982.40
2023-05-25T19:00:01.710Z,982.45
2023-05-25T19:01:01.627Z,982.45
2023-05-25T19:02:01.634Z,982.44
2023-05-25T19:03:01.631Z,982.49
2023-05-25T19:04:01.531Z,982.49
2023-05-25T19:05:01.343Z,982.48
2023-05-25T19:06:01.262Z,982.48
2023-05-25T19:07:01.189Z,982.46
2023-05-25T19:08:01.128Z,982.51
2023-05-25T19:09:01.040Z,982.48
2023-05-25T19:10:00.990Z,982.52
2023-05-25T19:11:00.892Z,982.51
2023-05-25T19:12:00.816Z,982.52
2023-05-25T19:13:00.746Z,982.54
2023-05-25T19:14:00.664Z,982.58
2023-05-25T19:15:00.612Z,982.61
2023-05-25T19:16:00.551Z,982.60
2023-05-25T19:17:00.522Z,982.59
2023-05-25T19:18:00.395Z,982.63
2023-05-25T19:19:00.305Z,982.64
2023-05-25T19:20:00.289Z,982.69
2023-05-25T19:21:00.144Z,982.69
2023-05-25T19:22:00.128Z,982.70
2023-05-25T19:23:00.012Z,982.72
2023-05-25T19:23:59.930Z,982.73
2023-05-25T19:25:01.095Z,982.74
2023-05-25T19:25:59.792Z,982.71
2023-05-25T19:26:59.705Z,982.73
2023-05-25T19:27:59.641Z,982.76
2023-05-25T19:28:59.560Z,982.76
2023-05-25T19:29:59.478Z,982.78
2023-05-25T19:30:59.406Z,982.73
2023-05-25T19:31:59.389Z,982.77
2023-05-25T19:32:59.268Z,982.82
2023-05-25T19:33:59.185Z,982.81
2023-05-25T19:34:59.112Z,982.82
2023-05-25T19:35:59.045Z,982.85
2023-05-25T19:37:07.578Z,982.86
2023-05-25T19:38:01.185Z,982.86
2023-05-25T19:38:58.813Z,982.87
2023-05-25T19:39:58.741Z,982.86
2023-05-25T19:40:58.669Z,982.92
2023-05-25T19:41:58.589Z,982.90
2023-05-25T19:42:58.516Z,982.89
2023-05-25T19:43:58.448Z,982.92
2023-05-25T19:44:58.362Z,982.92
2023-05-25T19:45:58.308Z,982.94
2023-05-25T19:46:58.223Z,982.98
2023-05-25T19:47:58.194Z,982.95
2023-05-25T19:48:58.069Z,982.96
2023-05-25T19:49:57.999Z,982.99
2023-05-25T19:50:57.918Z,982.99
2023-05-25T19:51:57.846Z,982.98
2023-05-25T19:52:57.769Z,982.99
2023-05-25T19:53:57.692Z,983.01
2023-05-25T19:54:57.620Z,983.03
2023-05-25T19:55:57.542Z,983.07
2023-05-25T19:56:57.482Z,983.06
2023-05-25T19:57:57.389Z,983.06
2023-05-25T19:58:57.321Z,983.11
2023-05-25T19:59:57.246Z,983.09
2023-05-25T20:00:57.239Z,983.13
2023-05-25T20:01:57.093Z,983.18
2023-05-25T20:02:57.140Z,983.18
2023-05-25T20:03:56.958Z,983.16
2023-05-25T20:04:56.892Z,983.16
2023-05-25T20:05:56.802Z,983.18
2023-05-25T20:06:56.719Z,983.20
2023-05-25T20:07:56.641Z,983.20
2023-05-25T20:08:56.576Z,983.21
2023-05-25T20:09:56.496Z,983.18
2023-05-25T20:10:56.431Z,983.20
2023-05-25T20:11:56.349Z,983.16
2023-05-25T20:12:56.269Z,983.20
2023-05-25T20:13:56.194Z,983.20
2023-05-25T20:14:56.120Z,983.19
2023-05-25T20:15:56.064Z,983.18
2023-05-25T20:16:56.203Z,983.20
2023-05-25T20:17:55.975Z,983.16
2023-05-25T20:18:55.811Z,983.19
2023-05-25T20:19:55.789Z,983.14
2023-05-25T20:20:55.667Z,983.14
2023-05-25T20:21:55.591Z,983.15
2023-05-25T20:22:55.522Z,983.20
2023-05-25T20:23:55.442Z,983.17
2023-05-25T20:24:55.361Z,983.19
2023-05-25T20:25:55.291Z,983.19
2023-05-25T20:26:55.214Z,983.20
2023-05-25T20:27:55.139Z,983.21
2023-05-25T20:28:55.061Z,983.19
2023-05-25T20:29:54.998Z,983.21
2023-05-25T20:30:54.911Z,983.23
2023-05-25T20:31:54.868Z,983.24
2023-05-25T20:32:54.810Z,983.24
2023-05-25T20:33:54.688Z,983.25
2023-05-25T20:34:54.611Z,983.22
2023-05-25T20:35:54.531Z,983.22
2023-05-25T20:36:54.456Z,983.22
2023-05-25T20:37:54.383Z,983.24
2023-05-25T20:38:54.310Z,983.26
2023-05-25T20:39:54.242Z,983.26
2023-05-25T20:40:54.150Z,983.29
2023-05-25T20:41:54.086Z,983.28
2023-05-25T20:42:54.005Z,983.32
2023-05-25T20:43:53.929Z,983.29
2023-05-25T20:44:53.861Z,983.30
2023-05-25T20:45:53.793Z,983.28
2023-05-25T20:46:53.712Z,983.29
2023-05-25T20:47:53.648Z,983.30
2023-05-25T20:48:53.664Z,983.31
2023-05-25T20:49:53.477Z,983.33
2023-05-25T20:50:53.409Z,983.37
2023-05-25T20:51:53.333Z,983.36
2023-05-25T20:52:53.267Z,983.36
2023-05-25T20:53:53.167Z,983.31
2023-05-25T20:54:53.106Z,983.34
2023-05-25T20:55:53.026Z,983.25
2023-05-25T20:56:52.952Z,983.29
2023-05-25T20:57:52.883Z,983.29
2023-05-25T20:58:52.794Z,983.31
2023-05-25T20:59:52.731Z,983.29
2023-05-25T21:00:52.650Z,983.36
2023-05-25T21:01:52.620Z,983.32
2023-05-25T21:02:52.552Z,983.33
2023-05-25T21:03:52.462Z,983.36
2023-05-25T21:04:52.341Z,983.35
2023-05-25T21:05:52.266Z,983.38
2023-05-25T21:06:52.195Z,983.40
2023-05-25T21:07:52.120Z,983.44
2023-05-25T21:08:52.041Z,983.42
2023-05-25T21:09:51.959Z,983.44
2023-05-25T21:10:51.898Z,983.44
2023-05-25T21:11:51.809Z,983.44
2023-05-25T21:12:51.740Z,983.45
2023-05-25T21:13:51.667Z,983.40
2023-05-25T21:14:51.592Z,983.45
2023-05-25T21:15:51.543Z,983.44
2023-05-25T21:16:51.433Z,983.45
2023-05-25T21:17:51.423Z,983.44
2023-05-25T21:18:51.281Z,983.48
2023-05-25T21:19:51.199Z,983.49
2023-05-25T21:20:51.121Z,983.47
2023-05-25T21:21:51.044Z,983.51
2023-05-25T21:22:50.971Z,983.51
2023-05-25T21:23:50.891Z,983.52
2023-05-25T21:24:50.823Z,983.55
2023-05-25T21:25:50.752Z,983.52
2023-05-25T21:26:50.678Z,983.55
2023-05-25T21:27:50.592Z,983.55
2023-05-25T21:28:50.515Z,983.56
2023-05-25T21:29:50.442Z,983.58
2023-05-25T21:30:50.369Z,983.63
2023-05-25T21:31:50.315Z,983.65
2023-05-25T21:32:50.271Z,983.61
2023-05-25T21:33:50.132Z,983.63
2023-05-25T21:34:50.077Z,983.65
2023-05-25T21:35:49.972Z,983.66
2023-05-25T21:36:49.910Z,983.69
2023-05-25T21:37:49.829Z,983.72
2023-05-25T21:38:49.744Z,983.74
2023-05-25T21:39:49.677Z,983.73
2023-05-25T21:40:49.604Z,983.75
2023-05-25T21:41:49.522Z,983.79
2023-05-25T21:42:51.252Z,983.80
2023-05-25T21:43:49.366Z,983.81
2023-05-25T21:44:49.284Z,983.80
2023-05-25T21:45:49.215Z,983.81
2023-05-25T21:46:49.148Z,983.80
2023-05-25T21:47:49.176Z,983.79
2023-05-25T21:48:48.982Z,983.82
2023-05-25T21:49:48.903Z,983.80
2023-05-25T21:50:48.832Z,983.82
2023-05-25T21:51:48.750Z,983.80
2023-05-25T21:52:48.671Z,983.81
2023-05-25T21:53:48.593Z,983.83
2023-05-25T21:54:48.515Z,983.80
2023-05-25T21:55:48.445Z,983.83
2023-05-25T21:56:48.372Z,983.83
2023-05-25T21:57:48.284Z,983.80
2023-05-25T21:58:48.207Z,983.84
2023-05-25T21:59:48.140Z,983.82
2023-05-25T22:00:48.101Z,983.86
2023-05-25T22:01:47.986Z,983.85
2023-05-25T22:02:47.935Z,983.84
2023-05-25T22:03:47.826Z,983.88
2023-05-25T22:04:47.750Z,983.87
2023-05-25T22:05:47.675Z,983.89
2023-05-25T22:06:47.600Z,983.85
2023-05-25T22:07:47.515Z,983.90
2023-05-25T22:08:47.437Z,983.91
2023-05-25T22:09:47.359Z,983.91
2023-05-25T22:10:47.284Z,983.91
2023-05-25T22:11:47.209Z,983.93
2023-05-25T22:12:47.145Z,983.91
2023-05-25T22:13:47.050Z,983.95
2023-05-25T22:14:46.978Z,983.92
2023-05-25T22:15:47.094Z,983.88
2023-05-25T22:16:46.854Z,983.88
2023-05-25T22:17:46.779Z,983.86
2023-05-25T22:18:46.670Z,983.84
2023-05-25T22:19:52.154Z,983.85
2023-05-25T22:20:46.540Z,983.87
2023-05-25T22:21:46.440Z,983.87
2023-05-25T22:22:46.354Z,983.87
2023-05-25T22:23:46.293Z,983.88
2023-05-25T22:24:46.203Z,983.87
2023-05-25T22:25:46.280Z,983.89
2023-05-25T22:26:46.048Z,983.84
2023-05-25T22:27:45.969Z,983.93
2023-05-25T22:28:45.899Z,983.89
2023-05-25T22:29:45.820Z,983.90
2023-05-25T22:30:45.826Z,983.87
2023-05-25T22:31:45.665Z,983.89
2023-05-25T22:32:45.643Z,983.91
2023-05-25T22:33:45.507Z,983.90
2023-05-25T22:34:45.436Z,983.91
2023-05-25T22:35:45.601Z,983.91
2023-05-25T22:36:45.274Z,983.91
2023-05-25T22:37:45.200Z,983.90
2023-05-25T22:38:45.116Z,983.89
2023-05-25T22:39:45.045Z,983.89
2023-05-25T22:40:44.967Z,983.91
2023-05-25T22:41:44.919Z,983.89
2023-05-25T22:42:44.811Z,983.95
2023-05-25T22:43:44.729Z,983.93
2023-05-25T22:44:44.661Z,983.94
2023-05-25T22:45:44.830Z,983.97
2023-05-25T22:46:44.557Z,983.96
2023-05-25T22:47:44.540Z,983.97
2023-05-25T22:48:44.346Z,984.01
2023-05-25T22:49:44.500Z,984.00
2023-05-25T22:50:44.191Z,984.01
2023-05-25T22:51:44.108Z,984.04
2023-05-25T22:52:44.035Z,984.04
2023-05-25T22:53:43.954Z,984.06
2023-05-25T22:54:43.883Z,984.05
2023-05-25T22:55:46.548Z,984.08
2023-05-25T22:56:43.718Z,984.08
2023-05-25T22:57:43.643Z,984.08
2023-05-25T22:58:43.575Z,984.06
2023-05-25T22:59:43.517Z,984.03
2023-05-25T23:00:43.422Z,984.08
2023-05-25T23:01:43.360Z,984.10
2023-05-25T23:02:43.314Z,984.10
2023-05-25T23:03:43.234Z,984.09
2023-05-25T23:04:43.106Z,984.11
2023-05-25T23:05:43.030Z,984.08
2023-05-25T23:06:42.946Z,984.05
2023-05-25T23:07:42.864Z,984.07
2023-05-25T23:08:42.795Z,984.06
2023-05-25T23:09:42.711Z,984.07
2023-05-25T23:10:42.633Z,984.06
2023-05-25T23:11:42.561Z,984.03
2023-05-25T23:12:42.481Z,984.05
2023-05-25T23:13:42.395Z,984.02
2023-05-25T23:14:42.324Z,984.05
2023-05-25T23:15:42.242Z,984.03
2023-05-25T23:16:42.241Z,984.01
2023-05-25T23:17:42.112Z,984.04
2023-05-25T23:18:42.021Z,984.02
2023-05-25T23:19:41.933Z,984.01
2023-05-25T23:20:41.980Z,984.02
2023-05-25T23:21:41.776Z,983.98
2023-05-25T23:22:41.697Z,983.96
2023-05-25T23:23:41.623Z,983.95
2023-05-25T23:24:41.541Z,983.97
2023-05-25T23:25:41.461Z,983.96
2023-05-25T23:26:41.389Z,983.93
2023-05-25T23:27:41.304Z,983.94
2023-05-25T23:28:41.261Z,983.94
2023-05-25T23:29:41.153Z,983.97
2023-05-25T23:30:41.074Z,983.94
2023-05-25T23:31:41.057Z,983.98
2023-05-25T23:32:40.984Z,983.97
2023-05-25T23:33:40.836Z,983.97
2023-05-25T23:34:40.768Z,983.98
2023-05-25T23:35:40.692Z,984.00
2023-05-25T23:36:40.622Z,984.01
2023-05-25T23:37:40.528Z,984.00
2023-05-25T23:38:40.458Z,984.02
2023-05-25T23:39:40.373Z,984.05
2023-05-25T23:40:40.285Z,984.04
2023-05-25T23:41:40.208Z,984.05
2023-05-25T23:42:40.140Z,984.11
2023-05-25T23:43:40.066Z,984.10
2023-05-25T23:44:39.988Z,984.10
2023-05-25T23:45:39.926Z,984.13
2023-05-25T23:46:39.855Z,984.12
2023-05-25T23:47:39.782Z,984.15
2023-05-25T23:48:39.665Z,984.15
2023-05-25T23:49:39.588Z,984.13
2023-05-25T23:50:39.515Z,984.19
2023-05-25T23:51:39.429Z,984.17
2023-05-25T23:52:39.352Z,984.14
2023-05-25T23:53:39.289Z,984.16
2023-05-25T23:54:39.201Z,984.18
2023-05-25T23:55:39.122Z,984.19
2023-05-25T23:56:39.049Z,984.21
2023-05-25T23:57:38.979Z,984.20
2023-05-25T23:58:38.882Z,984.19
2023-05-25T23:59:38.816Z,984.14
